createdAt,value
2019-04-10T00:02:53.586Z,13.83
2019-04-10T00:07:55.482Z,12.53
2019-04-10T00:12:58.162Z,19.40
2019-04-10T00:18:20.395Z,13.20
2019-04-10T00:23:22.699Z,14.03
2019-04-10T00:28:25.503Z,10.87
2019-04-10T00:33:27.121Z,10.73
2019-04-10T00:38:29.554Z,10.80
2019-04-10T00:43:31.178Z,16.20
2019-04-10T00:48:32.889Z,14.90
2019-04-10T00:53:34.909Z,14.03
2019-04-10T00:58:37.523Z,11.87
2019-04-10T01:03:42.186Z,14.47
2019-04-10T01:08:44.745Z,13.87
2019-04-10T01:13:47.438Z,12.97
2019-04-10T01:18:49.140Z,10.87
2019-04-10T01:23:50.599Z,10.13
2019-04-10T01:28:54.026Z,14.77
2019-04-10T01:33:56.812Z,10.83
2019-04-10T01:38:58.471Z,12.77
2019-04-10T01:44:00.028Z,15.43
2019-04-10T01:49:01.732Z,13.67
2019-04-10T01:54:03.226Z,13.90
2019-04-10T01:59:05.634Z,13.63
2019-04-10T02:04:07.219Z,11.83
2019-04-10T02:09:08.775Z,12.07
2019-04-10T02:14:10.305Z,14.13
2019-04-10T02:19:12.212Z,13.97
2019-04-10T02:24:14.610Z,15.43
2019-04-10T02:29:16.244Z,12.70
2019-04-10T02:34:19.242Z,12.77
2019-04-10T02:39:29.814Z,11.17
2019-04-10T02:44:26.703Z,13.93
2019-04-10T02:49:29.883Z,14.03
2019-04-10T02:54:33.410Z,17.93
2019-04-10T02:59:35.258Z,16.87
2019-04-10T03:04:37.289Z,15.57
2019-04-10T03:09:52.788Z,15.50
2019-04-10T03:14:45.203Z,13.43
2019-04-10T03:19:45.761Z,15.77
2019-04-10T03:24:48.328Z,21.30
2019-04-10T03:29:51.848Z,15.30
2019-04-10T03:34:56.516Z,12.70
2019-04-10T03:39:59.346Z,16.57
2019-04-10T03:45:01.181Z,18.73
2019-04-10T03:50:04.636Z,18.37
2019-04-10T03:55:06.464Z,16.20
2019-04-10T04:00:10.251Z,21.80
2019-04-10T04:05:12.732Z,22.40
2019-04-10T04:10:14.397Z,18.77
2019-04-10T04:15:15.949Z,21.47
2019-04-10T04:20:17.633Z,20.87
2019-04-10T04:25:19.204Z,22.27
2019-04-10T04:30:20.697Z,22.17
2019-04-10T04:35:22.343Z,16.10
2019-04-10T04:40:23.953Z,22.20
2019-04-10T04:45:25.690Z,21.43
2019-04-10T04:50:27.448Z,21.43
2019-04-10T04:55:29.035Z,21.33
2019-04-10T05:00:30.648Z,21.63
2019-04-10T05:05:32.194Z,22.77
2019-04-10T05:10:33.863Z,21.67
2019-04-10T05:15:35.637Z,24.27
2019-04-10T05:20:44.164Z,30.10
2019-04-10T05:25:41.474Z,26.17
2019-04-10T05:30:43.171Z,23.40
2019-04-10T05:35:45.057Z,26.93
2019-04-10T05:40:46.553Z,22.97
2019-04-10T05:45:48.631Z,24.80
2019-04-10T05:50:57.580Z,26.53
2019-04-10T05:55:53.813Z,22.83
2019-04-10T06:00:58.793Z,19.50
2019-04-10T06:06:01.142Z,21.53
2019-04-10T06:11:02.827Z,20.57
2019-04-10T06:16:05.535Z,18.77
2019-04-10T06:21:07.193Z,19.97
2019-04-10T06:26:10.100Z,22.57
2019-04-10T06:31:12.532Z,16.13
2019-04-10T06:36:15.236Z,17.37
2019-04-10T06:41:17.772Z,18.20
2019-04-10T06:46:20.223Z,21.00
2019-04-10T06:51:21.785Z,16.83
2019-04-10T06:56:23.423Z,18.67
2019-04-10T07:01:34.817Z,17.30
2019-04-10T07:06:44.658Z,15.47
2019-04-10T07:11:32.708Z,15.63
2019-04-10T07:16:38.449Z,16.63
2019-04-10T07:21:40.576Z,16.33
2019-04-10T07:26:45.949Z,13.93
2019-04-10T07:31:49.339Z,17.97
2019-04-10T07:36:51.934Z,13.87
2019-04-10T07:41:53.697Z,21.60
2019-04-10T07:46:56.830Z,15.57
2019-04-10T07:51:58.712Z,13.17
2019-04-10T07:57:00.304Z,15.60
2019-04-10T08:02:02.493Z,14.33
2019-04-10T08:07:05.212Z,18.63
2019-04-10T08:12:07.266Z,15.97
2019-04-10T08:17:10.045Z,17.83
2019-04-10T08:22:12.334Z,20.93
2019-04-10T08:27:14.102Z,16.10
2019-04-10T08:32:16.083Z,19.00
2019-04-10T08:37:18.755Z,15.33
2019-04-10T08:42:20.865Z,17.33
2019-04-10T08:47:22.762Z,17.57
2019-04-10T08:52:24.334Z,10.90
2019-04-10T08:57:25.902Z,18.93
2019-04-10T09:02:28.300Z,18.57
2019-04-10T09:07:30.488Z,19.57
2019-04-10T09:12:32.006Z,20.03
2019-04-10T09:17:33.577Z,17.90
2019-04-10T09:22:56.292Z,17.83
2019-04-10T09:27:38.488Z,17.17
2019-04-10T09:32:40.027Z,13.60
2019-04-10T09:37:42.086Z,18.07
2019-04-10T09:42:43.847Z,14.20
2019-04-10T09:47:45.845Z,12.80
2019-04-10T09:52:48.268Z,16.47
2019-04-10T09:57:49.854Z,13.00
2019-04-10T10:02:51.334Z,15.03
2019-04-10T10:07:55.756Z,15.20
2019-04-10T10:12:56.930Z,9.83
2019-04-10T10:17:59.234Z,14.83
2019-04-10T10:23:01.309Z,16.73
2019-04-10T10:28:03.144Z,15.67
2019-04-10T10:33:05.593Z,19.00
2019-04-10T10:38:07.745Z,11.63
2019-04-10T10:43:10.036Z,12.17
2019-04-10T10:48:11.664Z,10.37
2019-04-10T10:53:14.253Z,11.70
2019-04-10T10:58:15.867Z,10.93
2019-04-10T11:03:18.193Z,14.73
2019-04-10T11:08:20.885Z,9.67
2019-04-10T11:13:24.220Z,14.27
2019-04-10T11:18:26.221Z,13.27
2019-04-10T11:23:28.586Z,13.67
2019-04-10T11:28:32.274Z,12.87
2019-04-10T11:33:34.811Z,12.80
2019-04-10T11:38:37.450Z,13.70
2019-04-10T11:43:39.435Z,14.40
2019-04-10T11:48:44.677Z,11.27
2019-04-10T11:53:47.968Z,13.00
2019-04-10T11:58:54.032Z,11.67
2019-04-10T12:03:54.334Z,10.43
2019-04-10T12:13:58.921Z,12.43
2019-04-10T12:19:01.129Z,11.73
2019-04-10T12:24:02.703Z,12.83
2019-04-10T12:29:04.487Z,11.23
2019-04-10T12:34:06.672Z,12.90
2019-04-10T12:39:09.273Z,12.70
2019-04-10T12:44:11.633Z,10.87
2019-04-10T12:49:13.691Z,10.20
2019-04-10T12:54:15.365Z,10.57
2019-04-10T12:59:17.374Z,9.87
2019-04-10T13:04:19.980Z,8.60
2019-04-10T13:09:22.414Z,13.00
2019-04-10T13:14:24.405Z,9.03
2019-04-10T13:19:27.097Z,13.07
2019-04-10T13:24:29.832Z,10.83
2019-04-10T13:29:42.681Z,9.00
2019-04-10T13:34:44.351Z,11.13
2019-04-10T13:39:46.814Z,9.43
2019-04-10T13:44:48.878Z,9.33
2019-04-10T13:49:54.556Z,14.30
2019-04-10T13:54:56.164Z,12.07
2019-04-10T13:59:57.833Z,11.87
2019-04-10T14:04:59.743Z,7.70
2019-04-10T14:10:02.856Z,12.10
2019-04-10T14:15:05.497Z,8.50
2019-04-10T14:20:08.575Z,8.50
2019-04-10T14:25:21.410Z,10.50
2019-04-10T14:30:33.872Z,12.33
2019-04-10T14:35:35.735Z,12.63
2019-04-10T14:40:37.999Z,7.10
2019-04-10T14:45:39.557Z,7.43
2019-04-10T14:50:42.157Z,8.23
2019-04-10T14:55:43.924Z,7.53
2019-04-10T15:00:49.383Z,7.80
2019-04-10T15:05:53.961Z,7.93
2019-04-10T15:10:54.798Z,7.77
2019-04-10T15:15:56.801Z,11.60
2019-04-10T15:20:58.649Z,7.13
2019-04-10T15:26:00.285Z,6.30
2019-04-10T15:31:01.753Z,6.83
2019-04-10T15:36:03.982Z,8.63
2019-04-10T15:41:06.478Z,8.20
2019-04-10T15:46:08.770Z,8.43
2019-04-10T15:51:10.327Z,7.80
2019-04-10T15:56:11.899Z,8.23
2019-04-10T16:01:15.965Z,6.30
2019-04-10T16:06:17.563Z,7.40
2019-04-10T16:11:30.015Z,8.37
2019-04-10T16:16:31.924Z,12.50
2019-04-10T16:21:33.860Z,13.90
2019-04-10T16:26:36.256Z,8.63
2019-04-10T16:31:37.740Z,9.10
2019-04-10T16:36:39.921Z,7.27
2019-04-10T16:41:41.872Z,10.50
2019-04-10T16:46:44.276Z,14.10
2019-04-10T16:51:46.206Z,8.10
2019-04-10T16:56:47.833Z,7.17
2019-04-10T17:01:49.355Z,7.90
2019-04-10T17:06:50.856Z,7.87
2019-04-10T17:11:53.552Z,11.37
2019-04-10T17:16:55.761Z,7.93
2019-04-10T17:21:58.683Z,10.47
2019-04-10T17:27:01.507Z,16.17
2019-04-10T17:32:04.642Z,8.33
2019-04-10T17:37:07.483Z,10.90
2019-04-10T17:42:10.188Z,9.00
2019-04-10T17:47:12.493Z,9.40
2019-04-10T17:52:14.574Z,8.20
2019-04-10T17:57:16.990Z,10.30
2019-04-10T18:02:19.081Z,9.83
2019-04-10T18:07:23.813Z,9.50
2019-04-10T18:12:25.963Z,6.43
2019-04-10T18:17:27.450Z,9.47
2019-04-10T18:22:28.990Z,12.80
2019-04-10T18:27:30.548Z,6.73
2019-04-10T18:32:32.423Z,10.97
2019-04-10T18:37:35.222Z,9.30
2019-04-10T18:42:38.525Z,7.30
2019-04-10T18:47:41.851Z,10.20
2019-04-10T18:52:43.724Z,10.97
2019-04-10T18:57:45.362Z,6.97
2019-04-10T19:02:46.954Z,5.67
2019-04-10T19:07:48.548Z,9.53
2019-04-10T19:12:50.782Z,10.37
2019-04-10T19:17:52.464Z,9.90
2019-04-10T19:22:55.047Z,9.03
2019-04-10T19:27:56.829Z,8.87
2019-04-10T19:32:59.511Z,6.57
2019-04-10T19:38:01.209Z,9.67
2019-04-10T19:43:04.006Z,12.43
2019-04-10T19:48:06.774Z,8.10
2019-04-10T19:53:08.969Z,8.80
2019-04-10T19:58:10.935Z,9.27
2019-04-10T20:03:13.439Z,10.00
2019-04-10T20:08:15.469Z,11.70
2019-04-10T20:13:16.982Z,11.00
2019-04-10T20:18:18.876Z,14.23
2019-04-10T20:23:21.531Z,9.27
2019-04-10T20:28:23.238Z,10.00
2019-04-10T20:33:24.975Z,9.83
2019-04-10T20:38:27.554Z,8.37
2019-04-10T20:43:30.642Z,8.17
2019-04-10T20:48:32.814Z,10.43
2019-04-10T20:53:34.495Z,9.10
2019-04-10T20:58:36.310Z,9.13
2019-04-10T21:03:38.180Z,10.57
2019-04-10T21:08:40.413Z,10.07
2019-04-10T21:13:42.533Z,9.20
2019-04-10T21:18:44.257Z,12.90
2019-04-10T21:23:46.503Z,10.23
2019-04-10T21:28:48.188Z,14.30
2019-04-10T21:34:08.193Z,13.07
2019-04-10T21:39:11.060Z,9.73
2019-04-10T21:44:13.349Z,10.90
2019-04-10T21:49:15.547Z,10.07
2019-04-10T21:54:18.416Z,15.87
2019-04-10T21:59:20.514Z,11.10
2019-04-10T22:04:23.104Z,13.20
2019-04-10T22:09:39.085Z,11.33
2019-04-10T22:14:41.770Z,11.23
2019-04-10T22:19:43.732Z,10.60
2019-04-10T22:24:46.266Z,8.73
2019-04-10T22:29:47.963Z,11.50
2019-04-10T22:34:50.513Z,12.23
2019-04-10T22:39:52.573Z,11.50
2019-04-10T22:44:54.201Z,9.17
2019-04-10T22:49:55.719Z,7.80
2019-04-10T22:54:57.311Z,10.23
2019-04-10T22:59:59.533Z,9.53
2019-04-10T23:05:01.989Z,7.77
2019-04-10T23:10:11.474Z,12.73
2019-04-10T23:15:13.532Z,8.70
2019-04-10T23:20:16.225Z,9.50
2019-04-10T23:25:18.362Z,6.90
2019-04-10T23:30:21.429Z,7.47
2019-04-10T23:35:23.290Z,8.37
2019-04-10T23:40:25.186Z,6.67
2019-04-10T23:45:26.655Z,6.80
2019-04-10T23:50:28.438Z,9.57
2019-04-10T23:55:30.197Z,10.40
